sensor_id;sensor_type;location;lat;lon;timestamp;temperature;humidity
19622;DHT22;9958;33.196;-97.114;2023-03-09T00:00:59;12.20;99.90
19622;DHT22;9958;33.196;-97.114;2023-03-09T00:03:27;12.20;99.90
19622;DHT22;9958;33.196;-97.114;2023-03-09T00:05:57;12.20;99.90
19622;DHT22;9958;33.196;-97.114;2023-03-09T00:08:28;12.20;99.90
19622;DHT22;9958;33.196;-97.114;2023-03-09T00:10:56;12.20;99.90
19622;DHT22;9958;33.196;-97.114;2023-03-09T00:13:24;12.10;99.90
19622;DHT22;9958;33.196;-97.114;2023-03-09T00:15:53;12.10;99.90
19622;DHT22;9958;33.196;-97.114;2023-03-09T00:18:22;12.10;99.90
19622;DHT22;9958;33.196;-97.114;2023-03-09T00:20:50;12.10;99.90
19622;DHT22;9958;33.196;-97.114;2023-03-09T00:23:18;12.10;99.90
19622;DHT22;9958;33.196;-97.114;2023-03-09T00:25:48;12.10;99.90
19622;DHT22;9958;33.196;-97.114;2023-03-09T00:28:16;12.00;99.90
19622;DHT22;9958;33.196;-97.114;2023-03-09T00:30:45;12.00;99.90
19622;DHT22;9958;33.196;-97.114;2023-03-09T00:33:13;12.00;99.90
19622;DHT22;9958;33.196;-97.114;2023-03-09T00:35:41;12.00;99.90
19622;DHT22;9958;33.196;-97.114;2023-03-09T00:38:10;11.90;99.90
19622;DHT22;9958;33.196;-97.114;2023-03-09T00:40:38;11.90;99.90
19622;DHT22;9958;33.196;-97.114;2023-03-09T00:43:08;11.90;99.90
19622;DHT22;9958;33.196;-97.114;2023-03-09T00:45:36;11.90;99.90
19622;DHT22;9958;33.196;-97.114;2023-03-09T00:48:05;11.90;99.90
19622;DHT22;9958;33.196;-97.114;2023-03-09T00:50:33;11.90;99.90
19622;DHT22;9958;33.196;-97.114;2023-03-09T00:53:01;11.90;99.90
19622;DHT22;9958;33.196;-97.114;2023-03-09T00:55:30;11.90;99.90
19622;DHT22;9958;33.196;-97.114;2023-03-09T00:57:58;11.90;99.90
19622;DHT22;9958;33.196;-97.114;2023-03-09T01:00:28;11.80;99.90
19622;DHT22;9958;33.196;-97.114;2023-03-09T01:02:59;11.80;99.90
19622;DHT22;9958;33.196;-97.114;2023-03-09T01:05:27;11.80;99.90
19622;DHT22;9958;33.196;-97.114;2023-03-09T01:07:56;11.90;99.90
19622;DHT22;9958;33.196;-97.114;2023-03-09T01:10:24;11.80;99.90
19622;DHT22;9958;33.196;-97.114;2023-03-09T01:12:52;11.90;99.90
19622;DHT22;9958;33.196;-97.114;2023-03-09T01:15:22;11.90;99.90
19622;DHT22;9958;33.196;-97.114;2023-03-09T01:17:51;11.90;99.90
19622;DHT22;9958;33.196;-97.114;2023-03-09T01:20:20;11.90;99.90
19622;DHT22;9958;33.196;-97.114;2023-03-09T01:22:48;11.80;99.90
19622;DHT22;9958;33.196;-97.114;2023-03-09T01:25:17;11.90;99.90
19622;DHT22;9958;33.196;-97.114;2023-03-09T01:27:45;11.80;99.90
19622;DHT22;9958;33.196;-97.114;2023-03-09T01:30:14;11.80;99.90
19622;DHT22;9958;33.196;-97.114;2023-03-09T01:32:42;11.80;99.90
19622;DHT22;9958;33.196;-97.114;2023-03-09T01:35:12;11.90;99.90
19622;DHT22;9958;33.196;-97.114;2023-03-09T01:37:41;11.90;99.90
19622;DHT22;9958;33.196;-97.114;2023-03-09T01:40:13;11.90;99.90
19622;DHT22;9958;33.196;-97.114;2023-03-09T01:42:44;11.90;99.90
19622;DHT22;9958;33.196;-97.114;2023-03-09T01:48:13;12.00;99.90
19622;DHT22;9958;33.196;-97.114;2023-03-09T01:50:43;12.00;99.90
19622;DHT22;9958;33.196;-97.114;2023-03-09T01:53:14;12.00;99.90
19622;DHT22;9958;33.196;-97.114;2023-03-09T01:55:47;12.00;99.90
19622;DHT22;9958;33.196;-97.114;2023-03-09T01:58:21;12.00;99.90
19622;DHT22;9958;33.196;-97.114;2023-03-09T02:00:54;12.00;99.90
19622;DHT22;9958;33.196;-97.114;2023-03-09T02:03:25;12.00;99.90
19622;DHT22;9958;33.196;-97.114;2023-03-09T02:05:58;12.00;99.90
19622;DHT22;9958;33.196;-97.114;2023-03-09T02:08:27;12.00;99.90
19622;DHT22;9958;33.196;-97.114;2023-03-09T02:10:58;12.00;99.90
19622;DHT22;9958;33.196;-97.114;2023-03-09T02:13:29;12.00;99.90
19622;DHT22;9958;33.196;-97.114;2023-03-09T02:15:58;12.00;99.90
19622;DHT22;9958;33.196;-97.114;2023-03-09T02:18:27;12.00;99.90
19622;DHT22;9958;33.196;-97.114;2023-03-09T02:21:03;12.00;99.90
19622;DHT22;9958;33.196;-97.114;2023-03-09T02:23:41;12.00;99.90
19622;DHT22;9958;33.196;-97.114;2023-03-09T02:26:16;12.00;99.90
19622;DHT22;9958;33.196;-97.114;2023-03-09T02:28:49;12.00;99.90
19622;DHT22;9958;33.196;-97.114;2023-03-09T02:31:19;12.00;99.90
19622;DHT22;9958;33.196;-97.114;2023-03-09T02:33:47;12.00;99.90
19622;DHT22;9958;33.196;-97.114;2023-03-09T02:36:15;12.00;99.90
19622;DHT22;9958;33.196;-97.114;2023-03-09T02:38:44;12.00;99.90
19622;DHT22;9958;33.196;-97.114;2023-03-09T02:41:13;12.00;99.90
19622;DHT22;9958;33.196;-97.114;2023-03-09T02:43:45;12.00;99.90
19622;DHT22;9958;33.196;-97.114;2023-03-09T02:46:15;12.00;99.90
19622;DHT22;9958;33.196;-97.114;2023-03-09T02:48:44;12.00;99.90
19622;DHT22;9958;33.196;-97.114;2023-03-09T02:51:12;12.00;99.90
19622;DHT22;9958;33.196;-97.114;2023-03-09T02:53:40;12.00;99.90
19622;DHT22;9958;33.196;-97.114;2023-03-09T02:56:09;12.00;99.90
19622;DHT22;9958;33.196;-97.114;2023-03-09T02:58:37;12.00;99.90
19622;DHT22;9958;33.196;-97.114;2023-03-09T03:01:06;12.00;99.90
19622;DHT22;9958;33.196;-97.114;2023-03-09T03:03:35;12.00;99.90
19622;DHT22;9958;33.196;-97.114;2023-03-09T03:06:04;12.00;99.90
19622;DHT22;9958;33.196;-97.114;2023-03-09T03:08:32;12.10;99.90
19622;DHT22;9958;33.196;-97.114;2023-03-09T03:11:01;12.10;99.90
19622;DHT22;9958;33.196;-97.114;2023-03-09T03:13:30;12.10;99.90
19622;DHT22;9958;33.196;-97.114;2023-03-09T03:15:59;12.20;99.90
19622;DHT22;9958;33.196;-97.114;2023-03-09T03:18:27;12.10;99.90
19622;DHT22;9958;33.196;-97.114;2023-03-09T03:20:57;12.10;99.90
19622;DHT22;9958;33.196;-97.114;2023-03-09T03:23:25;12.10;99.90
19622;DHT22;9958;33.196;-97.114;2023-03-09T03:25:54;12.20;99.90
19622;DHT22;9958;33.196;-97.114;2023-03-09T03:28:22;12.20;99.90
19622;DHT22;9958;33.196;-97.114;2023-03-09T03:30:51;12.20;99.90
19622;DHT22;9958;33.196;-97.114;2023-03-09T03:33:19;12.20;99.90
19622;DHT22;9958;33.196;-97.114;2023-03-09T03:35:48;12.20;99.90
19622;DHT22;9958;33.196;-97.114;2023-03-09T03:38:18;12.20;99.90
19622;DHT22;9958;33.196;-97.114;2023-03-09T03:40:46;12.20;99.90
19622;DHT22;9958;33.196;-97.114;2023-03-09T03:43:15;12.30;99.90
19622;DHT22;9958;33.196;-97.114;2023-03-09T03:45:43;12.20;99.90
19622;DHT22;9958;33.196;-97.114;2023-03-09T03:48:11;12.20;99.90
19622;DHT22;9958;33.196;-97.114;2023-03-09T03:50:40;12.30;99.90
19622;DHT22;9958;33.196;-97.114;2023-03-09T03:53:08;12.30;99.90
19622;DHT22;9958;33.196;-97.114;2023-03-09T03:55:38;12.30;99.90
19622;DHT22;9958;33.196;-97.114;2023-03-09T03:58:06;12.30;99.90
19622;DHT22;9958;33.196;-97.114;2023-03-09T04:00:35;12.40;99.90
19622;DHT22;9958;33.196;-97.114;2023-03-09T04:03:03;12.40;99.90
19622;DHT22;9958;33.196;-97.114;2023-03-09T04:05:31;12.40;99.90
19622;DHT22;9958;33.196;-97.114;2023-03-09T04:08:00;12.50;99.90
19622;DHT22;9958;33.196;-97.114;2023-03-09T04:10:28;12.50;99.90
19622;DHT22;9958;33.196;-97.114;2023-03-09T04:12:59;12.50;99.90
19622;DHT22;9958;33.196;-97.114;2023-03-09T04:15:27;12.60;99.90
19622;DHT22;9958;33.196;-97.114;2023-03-09T04:17:56;12.60;99.90
19622;DHT22;9958;33.196;-97.114;2023-03-09T04:20:24;12.60;99.90
19622;DHT22;9958;33.196;-97.114;2023-03-09T04:22:52;12.60;99.90
19622;DHT22;9958;33.196;-97.114;2023-03-09T04:25:21;12.70;99.90
19622;DHT22;9958;33.196;-97.114;2023-03-09T04:27:49;12.70;99.90
19622;DHT22;9958;33.196;-97.114;2023-03-09T04:30:19;12.70;99.90
19622;DHT22;9958;33.196;-97.114;2023-03-09T04:32:48;12.70;99.90
19622;DHT22;9958;33.196;-97.114;2023-03-09T04:35:17;12.70;99.90
19622;DHT22;9958;33.196;-97.114;2023-03-09T04:37:45;12.70;99.90
19622;DHT22;9958;33.196;-97.114;2023-03-09T04:40:14;12.70;99.90
19622;DHT22;9958;33.196;-97.114;2023-03-09T04:42:42;12.80;99.90
19622;DHT22;9958;33.196;-97.114;2023-03-09T04:45:11;12.80;99.90
19622;DHT22;9958;33.196;-97.114;2023-03-09T04:47:41;12.80;99.90
19622;DHT22;9958;33.196;-97.114;2023-03-09T04:50:10;12.80;99.90
19622;DHT22;9958;33.196;-97.114;2023-03-09T04:52:38;12.80;99.90
19622;DHT22;9958;33.196;-97.114;2023-03-09T04:55:07;12.80;99.90
19622;DHT22;9958;33.196;-97.114;2023-03-09T04:57:36;12.80;99.90
19622;DHT22;9958;33.196;-97.114;2023-03-09T05:00:06;12.80;99.90
19622;DHT22;9958;33.196;-97.114;2023-03-09T05:02:36;12.80;99.90
19622;DHT22;9958;33.196;-97.114;2023-03-09T05:05:06;12.90;99.90
19622;DHT22;9958;33.196;-97.114;2023-03-09T05:07:35;12.90;99.90
19622;DHT22;9958;33.196;-97.114;2023-03-09T05:10:04;12.90;99.90
19622;DHT22;9958;33.196;-97.114;2023-03-09T05:12:32;12.90;99.90
19622;DHT22;9958;33.196;-97.114;2023-03-09T05:15:01;12.90;99.90
19622;DHT22;9958;33.196;-97.114;2023-03-09T05:17:30;12.90;99.90
19622;DHT22;9958;33.196;-97.114;2023-03-09T05:19:58;12.90;99.90
19622;DHT22;9958;33.196;-97.114;2023-03-09T05:22:28;12.90;99.90
19622;DHT22;9958;33.196;-97.114;2023-03-09T05:24:56;12.90;99.90
19622;DHT22;9958;33.196;-97.114;2023-03-09T05:27:25;12.80;99.90
19622;DHT22;9958;33.196;-97.114;2023-03-09T05:29:53;12.80;99.90
19622;DHT22;9958;33.196;-97.114;2023-03-09T05:32:21;12.90;99.90
19622;DHT22;9958;33.196;-97.114;2023-03-09T05:34:50;12.90;99.90
19622;DHT22;9958;33.196;-97.114;2023-03-09T05:37:18;12.90;99.90
19622;DHT22;9958;33.196;-97.114;2023-03-09T05:39:48;12.90;99.90
19622;DHT22;9958;33.196;-97.114;2023-03-09T05:42:16;12.90;99.90
19622;DHT22;9958;33.196;-97.114;2023-03-09T05:44:45;12.90;99.90
19622;DHT22;9958;33.196;-97.114;2023-03-09T05:47:13;12.90;99.90
19622;DHT22;9958;33.196;-97.114;2023-03-09T05:49:41;12.90;99.90
19622;DHT22;9958;33.196;-97.114;2023-03-09T05:52:10;12.90;99.90
19622;DHT22;9958;33.196;-97.114;2023-03-09T05:54:38;12.90;99.90
19622;DHT22;9958;33.196;-97.114;2023-03-09T05:57:10;12.90;99.90
19622;DHT22;9958;33.196;-97.114;2023-03-09T05:59:38;12.90;99.90
19622;DHT22;9958;33.196;-97.114;2023-03-09T06:02:07;12.90;99.90
19622;DHT22;9958;33.196;-97.114;2023-03-09T06:04:35;12.90;99.90
19622;DHT22;9958;33.196;-97.114;2023-03-09T06:07:03;12.90;99.90
19622;DHT22;9958;33.196;-97.114;2023-03-09T06:09:32;12.90;99.90
19622;DHT22;9958;33.196;-97.114;2023-03-09T06:12:00;13.00;99.90
19622;DHT22;9958;33.196;-97.114;2023-03-09T06:14:30;13.00;99.90
19622;DHT22;9958;33.196;-97.114;2023-03-09T06:16:58;13.00;99.90
19622;DHT22;9958;33.196;-97.114;2023-03-09T06:19:27;13.10;99.90
19622;DHT22;9958;33.196;-97.114;2023-03-09T06:21:56;13.10;99.90
19622;DHT22;9958;33.196;-97.114;2023-03-09T06:24:24;13.00;99.90
19622;DHT22;9958;33.196;-97.114;2023-03-09T06:26:52;13.10;99.90
19622;DHT22;9958;33.196;-97.114;2023-03-09T06:29:24;13.10;99.90
19622;DHT22;9958;33.196;-97.114;2023-03-09T06:31:53;13.10;99.90
19622;DHT22;9958;33.196;-97.114;2023-03-09T06:34:22;13.10;99.90
19622;DHT22;9958;33.196;-97.114;2023-03-09T06:36:50;13.10;99.90
19622;DHT22;9958;33.196;-97.114;2023-03-09T06:39:18;13.10;99.90
19622;DHT22;9958;33.196;-97.114;2023-03-09T06:41:47;13.10;99.90
19622;DHT22;9958;33.196;-97.114;2023-03-09T06:44:16;13.10;99.90
19622;DHT22;9958;33.196;-97.114;2023-03-09T06:46:44;13.10;99.90
19622;DHT22;9958;33.196;-97.114;2023-03-09T06:49:14;13.10;99.90
19622;DHT22;9958;33.196;-97.114;2023-03-09T06:51:42;13.10;99.90
19622;DHT22;9958;33.196;-97.114;2023-03-09T06:54:11;13.10;99.90
19622;DHT22;9958;33.196;-97.114;2023-03-09T06:56:39;13.20;99.90
19622;DHT22;9958;33.196;-97.114;2023-03-09T06:59:07;13.20;99.90
19622;DHT22;9958;33.196;-97.114;2023-03-09T07:01:36;13.20;99.90
19622;DHT22;9958;33.196;-97.114;2023-03-09T07:04:04;13.20;99.90
19622;DHT22;9958;33.196;-97.114;2023-03-09T07:06:35;13.20;99.90
19622;DHT22;9958;33.196;-97.114;2023-03-09T07:09:03;13.20;99.90
19622;DHT22;9958;33.196;-97.114;2023-03-09T07:11:32;13.20;99.90
19622;DHT22;9958;33.196;-97.114;2023-03-09T07:14:00;13.20;99.90
19622;DHT22;9958;33.196;-97.114;2023-03-09T07:16:28;13.20;99.90
19622;DHT22;9958;33.196;-97.114;2023-03-09T07:18:56;13.20;99.90
19622;DHT22;9958;33.196;-97.114;2023-03-09T07:21:25;13.20;99.90
19622;DHT22;9958;33.196;-97.114;2023-03-09T07:23:55;13.20;99.90
19622;DHT22;9958;33.196;-97.114;2023-03-09T07:26:24;13.20;99.90
19622;DHT22;9958;33.196;-97.114;2023-03-09T07:28:53;13.20;99.90
19622;DHT22;9958;33.196;-97.114;2023-03-09T07:31:21;13.20;99.90
19622;DHT22;9958;33.196;-97.114;2023-03-09T07:33:50;13.20;99.90
19622;DHT22;9958;33.196;-97.114;2023-03-09T07:36:18;13.30;99.90
19622;DHT22;9958;33.196;-97.114;2023-03-09T07:38:47;13.30;99.90
19622;DHT22;9958;33.196;-97.114;2023-03-09T07:41:18;13.30;99.90
19622;DHT22;9958;33.196;-97.114;2023-03-09T07:43:46;13.30;99.90
19622;DHT22;9958;33.196;-97.114;2023-03-09T07:46:16;13.30;99.90
19622;DHT22;9958;33.196;-97.114;2023-03-09T07:48:44;13.30;99.90
19622;DHT22;9958;33.196;-97.114;2023-03-09T07:51:13;13.30;99.90
19622;DHT22;9958;33.196;-97.114;2023-03-09T07:53:41;13.40;99.90
19622;DHT22;9958;33.196;-97.114;2023-03-09T07:56:10;13.40;99.90
19622;DHT22;9958;33.196;-97.114;2023-03-09T07:58:40;13.40;99.90
19622;DHT22;9958;33.196;-97.114;2023-03-09T08:01:13;13.40;99.90
19622;DHT22;9958;33.196;-97.114;2023-03-09T08:03:43;13.40;99.90
19622;DHT22;9958;33.196;-97.114;2023-03-09T08:06:11;13.40;99.90
19622;DHT22;9958;33.196;-97.114;2023-03-09T08:08:40;13.40;99.90
19622;DHT22;9958;33.196;-97.114;2023-03-09T08:11:08;13.40;99.90
19622;DHT22;9958;33.196;-97.114;2023-03-09T08:13:37;13.40;99.90
19622;DHT22;9958;33.196;-97.114;2023-03-09T08:16:08;13.40;99.90
19622;DHT22;9958;33.196;-97.114;2023-03-09T08:18:38;13.40;99.90
19622;DHT22;9958;33.196;-97.114;2023-03-09T08:21:07;13.40;99.90
19622;DHT22;9958;33.196;-97.114;2023-03-09T08:23:36;13.40;99.90
19622;DHT22;9958;33.196;-97.114;2023-03-09T08:26:06;13.40;99.90
19622;DHT22;9958;33.196;-97.114;2023-03-09T08:28:35;13.40;99.90
19622;DHT22;9958;33.196;-97.114;2023-03-09T08:31:03;13.40;99.90
19622;DHT22;9958;33.196;-97.114;2023-03-09T08:33:33;13.40;99.90
19622;DHT22;9958;33.196;-97.114;2023-03-09T08:36:10;13.40;99.90
19622;DHT22;9958;33.196;-97.114;2023-03-09T08:38:40;13.40;99.90
19622;DHT22;9958;33.196;-97.114;2023-03-09T08:41:08;13.40;99.90
19622;DHT22;9958;33.196;-97.114;2023-03-09T08:43:37;13.40;99.90
19622;DHT22;9958;33.196;-97.114;2023-03-09T08:46:05;13.40;99.90
19622;DHT22;9958;33.196;-97.114;2023-03-09T08:48:36;13.40;99.90
19622;DHT22;9958;33.196;-97.114;2023-03-09T08:51:06;13.50;99.90
19622;DHT22;9958;33.196;-97.114;2023-03-09T08:53:35;13.50;99.90
19622;DHT22;9958;33.196;-97.114;2023-03-09T08:56:04;13.50;99.90
19622;DHT22;9958;33.196;-97.114;2023-03-09T08:58:33;13.50;99.90
19622;DHT22;9958;33.196;-97.114;2023-03-09T09:01:01;13.50;99.90
19622;DHT22;9958;33.196;-97.114;2023-03-09T09:03:31;13.50;99.90
19622;DHT22;9958;33.196;-97.114;2023-03-09T09:06:06;13.50;99.90
19622;DHT22;9958;33.196;-97.114;2023-03-09T09:08:35;13.50;99.90
19622;DHT22;9958;33.196;-97.114;2023-03-09T09:11:05;13.50;99.90
19622;DHT22;9958;33.196;-97.114;2023-03-09T09:13:34;13.50;99.90
19622;DHT22;9958;33.196;-97.114;2023-03-09T09:16:03;13.50;99.90
19622;DHT22;9958;33.196;-97.114;2023-03-09T09:18:32;13.50;99.90
19622;DHT22;9958;33.196;-97.114;2023-03-09T09:21:05;13.50;99.90
19622;DHT22;9958;33.196;-97.114;2023-03-09T09:23:34;13.50;99.90
19622;DHT22;9958;33.196;-97.114;2023-03-09T09:26:03;13.50;99.90
19622;DHT22;9958;33.196;-97.114;2023-03-09T09:28:32;13.50;99.90
19622;DHT22;9958;33.196;-97.114;2023-03-09T09:31:02;13.50;99.90
19622;DHT22;9958;33.196;-97.114;2023-03-09T09:33:33;13.50;99.90
19622;DHT22;9958;33.196;-97.114;2023-03-09T09:36:05;13.50;99.90
19622;DHT22;9958;33.196;-97.114;2023-03-09T09:38:35;13.50;99.90
19622;DHT22;9958;33.196;-97.114;2023-03-09T09:41:07;13.60;99.90
19622;DHT22;9958;33.196;-97.114;2023-03-09T09:43:40;13.60;99.90
19622;DHT22;9958;33.196;-97.114;2023-03-09T09:46:11;13.50;99.90
19622;DHT22;9958;33.196;-97.114;2023-03-09T09:48:41;13.50;99.90
19622;DHT22;9958;33.196;-97.114;2023-03-09T09:51:17;13.60;99.90
19622;DHT22;9958;33.196;-97.114;2023-03-09T09:53:58;13.60;99.90
19622;DHT22;9958;33.196;-97.114;2023-03-09T09:56:37;13.60;99.90
19622;DHT22;9958;33.196;-97.114;2023-03-09T09:59:13;13.60;99.90
19622;DHT22;9958;33.196;-97.114;2023-03-09T10:01:48;13.60;99.90
19622;DHT22;9958;33.196;-97.114;2023-03-09T10:04:23;13.50;99.90
19622;DHT22;9958;33.196;-97.114;2023-03-09T10:06:57;13.50;99.90
19622;DHT22;9958;33.196;-97.114;2023-03-09T10:09:29;13.60;99.90
19622;DHT22;9958;33.196;-97.114;2023-03-09T10:12:01;13.60;99.90
19622;DHT22;9958;33.196;-97.114;2023-03-09T10:14:37;13.50;99.90
19622;DHT22;9958;33.196;-97.114;2023-03-09T10:17:11;13.50;99.90
19622;DHT22;9958;33.196;-97.114;2023-03-09T10:19:42;13.60;99.90
19622;DHT22;9958;33.196;-97.114;2023-03-09T10:22:19;13.60;99.90
19622;DHT22;9958;33.196;-97.114;2023-03-09T10:24:50;13.50;99.90
19622;DHT22;9958;33.196;-97.114;2023-03-09T10:27:20;13.50;99.90
19622;DHT22;9958;33.196;-97.114;2023-03-09T10:29:56;13.60;99.90
19622;DHT22;9958;33.196;-97.114;2023-03-09T10:32:36;13.60;99.90
19622;DHT22;9958;33.196;-97.114;2023-03-09T10:35:19;13.60;99.90
19622;DHT22;9958;33.196;-97.114;2023-03-09T10:37:50;13.60;99.90
19622;DHT22;9958;33.196;-97.114;2023-03-09T10:40:21;13.60;99.90
19622;DHT22;9958;33.196;-97.114;2023-03-09T10:42:49;13.60;99.90
19622;DHT22;9958;33.196;-97.114;2023-03-09T10:45:25;13.60;99.90
19622;DHT22;9958;33.196;-97.114;2023-03-09T10:47:57;13.60;99.90
19622;DHT22;9958;33.196;-97.114;2023-03-09T10:50:28;13.60;99.90
19622;DHT22;9958;33.196;-97.114;2023-03-09T10:53:14;13.60;99.90
19622;DHT22;9958;33.196;-97.114;2023-03-09T10:55:46;13.60;99.90
19622;DHT22;9958;33.196;-97.114;2023-03-09T10:58:17;13.60;99.90
19622;DHT22;9958;33.196;-97.114;2023-03-09T11:00:57;13.60;99.90
19622;DHT22;9958;33.196;-97.114;2023-03-09T11:03:31;13.50;99.90
19622;DHT22;9958;33.196;-97.114;2023-03-09T11:06:16;13.50;99.90
19622;DHT22;9958;33.196;-97.114;2023-03-09T11:08:55;13.50;99.90
19622;DHT22;9958;33.196;-97.114;2023-03-09T11:11:26;13.50;99.90
19622;DHT22;9958;33.196;-97.114;2023-03-09T11:13:55;13.50;99.90
19622;DHT22;9958;33.196;-97.114;2023-03-09T11:16:25;13.50;99.90
19622;DHT22;9958;33.196;-97.114;2023-03-09T11:19:10;13.50;99.90
19622;DHT22;9958;33.196;-97.114;2023-03-09T11:21:45;13.50;99.90
19622;DHT22;9958;33.196;-97.114;2023-03-09T11:24:18;13.50;99.90
19622;DHT22;9958;33.196;-97.114;2023-03-09T11:26:50;13.50;99.90
19622;DHT22;9958;33.196;-97.114;2023-03-09T11:29:28;13.40;99.90
19622;DHT22;9958;33.196;-97.114;2023-03-09T11:31:58;13.50;99.90
19622;DHT22;9958;33.196;-97.114;2023-03-09T11:34:29;13.50;99.90
19622;DHT22;9958;33.196;-97.114;2023-03-09T11:37:05;13.50;99.90
19622;DHT22;9958;33.196;-97.114;2023-03-09T11:39:41;13.40;99.90
19622;DHT22;9958;33.196;-97.114;2023-03-09T11:42:12;13.40;99.90
19622;DHT22;9958;33.196;-97.114;2023-03-09T11:44:43;13.50;99.90
19622;DHT22;9958;33.196;-97.114;2023-03-09T11:47:23;13.40;99.90
19622;DHT22;9958;33.196;-97.114;2023-03-09T11:49:55;13.40;99.90
19622;DHT22;9958;33.196;-97.114;2023-03-09T11:52:29;13.50;99.90
19622;DHT22;9958;33.196;-97.114;2023-03-09T11:55:02;13.40;99.90
19622;DHT22;9958;33.196;-97.114;2023-03-09T11:57:34;13.40;99.90
19622;DHT22;9958;33.196;-97.114;2023-03-09T12:00:06;13.40;99.90
19622;DHT22;9958;33.196;-97.114;2023-03-09T12:02:47;13.40;99.90
19622;DHT22;9958;33.196;-97.114;2023-03-09T12:05:17;13.40;99.90
19622;DHT22;9958;33.196;-97.114;2023-03-09T12:07:56;13.40;99.90
19622;DHT22;9958;33.196;-97.114;2023-03-09T12:10:29;13.40;99.90
19622;DHT22;9958;33.196;-97.114;2023-03-09T12:13:02;13.40;99.90
19622;DHT22;9958;33.196;-97.114;2023-03-09T12:15:35;13.30;99.90
19622;DHT22;9958;33.196;-97.114;2023-03-09T12:18:15;13.30;99.90
19622;DHT22;9958;33.196;-97.114;2023-03-09T12:20:50;13.30;99.90
19622;DHT22;9958;33.196;-97.114;2023-03-09T12:23:43;13.30;99.90
19622;DHT22;9958;33.196;-97.114;2023-03-09T12:26:28;13.30;99.90
19622;DHT22;9958;33.196;-97.114;2023-03-09T12:29:04;13.30;99.90
19622;DHT22;9958;33.196;-97.114;2023-03-09T12:31:35;13.30;99.90
19622;DHT22;9958;33.196;-97.114;2023-03-09T12:34:22;13.30;99.90
19622;DHT22;9958;33.196;-97.114;2023-03-09T12:36:51;13.30;99.90
19622;DHT22;9958;33.196;-97.114;2023-03-09T12:39:42;13.40;99.90
19622;DHT22;9958;33.196;-97.114;2023-03-09T12:42:34;13.40;99.90
19622;DHT22;9958;33.196;-97.114;2023-03-09T12:45:24;13.40;99.90
19622;DHT22;9958;33.196;-97.114;2023-03-09T12:47:56;13.40;99.90
19622;DHT22;9958;33.196;-97.114;2023-03-09T12:50:30;13.50;99.90
19622;DHT22;9958;33.196;-97.114;2023-03-09T12:53:11;13.40;99.90
19622;DHT22;9958;33.196;-97.114;2023-03-09T12:55:47;13.50;99.90
19622;DHT22;9958;33.196;-97.114;2023-03-09T12:58:45;13.50;99.90
19622;DHT22;9958;33.196;-97.114;2023-03-09T13:01:31;13.50;99.90
19622;DHT22;9958;33.196;-97.114;2023-03-09T13:04:17;13.50;99.90
19622;DHT22;9958;33.196;-97.114;2023-03-09T13:06:53;13.50;99.90
19622;DHT22;9958;33.196;-97.114;2023-03-09T13:09:27;13.60;99.90
19622;DHT22;9958;33.196;-97.114;2023-03-09T13:12:03;13.60;99.90
19622;DHT22;9958;33.196;-97.114;2023-03-09T13:15:06;13.60;99.90
19622;DHT22;9958;33.196;-97.114;2023-03-09T13:17:37;13.60;99.90
19622;DHT22;9958;33.196;-97.114;2023-03-09T13:20:19;13.60;99.90
19622;DHT22;9958;33.196;-97.114;2023-03-09T13:22:51;13.60;99.90
19622;DHT22;9958;33.196;-97.114;2023-03-09T13:25:42;13.60;99.90
19622;DHT22;9958;33.196;-97.114;2023-03-09T13:28:20;13.60;99.90
19622;DHT22;9958;33.196;-97.114;2023-03-09T13:30:53;13.60;99.90
19622;DHT22;9958;33.196;-97.114;2023-03-09T13:33:25;13.70;99.90
19622;DHT22;9958;33.196;-97.114;2023-03-09T13:35:57;13.70;99.90
19622;DHT22;9958;33.196;-97.114;2023-03-09T13:38:31;13.70;99.90
19622;DHT22;9958;33.196;-97.114;2023-03-09T13:41:02;13.70;99.90
19622;DHT22;9958;33.196;-97.114;2023-03-09T13:43:33;13.70;99.90
19622;DHT22;9958;33.196;-97.114;2023-03-09T13:46:06;13.80;99.90
19622;DHT22;9958;33.196;-97.114;2023-03-09T13:48:40;13.70;99.90
19622;DHT22;9958;33.196;-97.114;2023-03-09T13:51:24;13.80;99.90
19622;DHT22;9958;33.196;-97.114;2023-03-09T13:53:52;13.80;99.90
19622;DHT22;9958;33.196;-97.114;2023-03-09T13:56:21;13.80;99.90
19622;DHT22;9958;33.196;-97.114;2023-03-09T13:58:49;13.80;99.90
19622;DHT22;9958;33.196;-97.114;2023-03-09T14:01:22;13.80;99.90
19622;DHT22;9958;33.196;-97.114;2023-03-09T14:03:52;13.90;99.90
19622;DHT22;9958;33.196;-97.114;2023-03-09T14:06:31;13.90;99.90
19622;DHT22;9958;33.196;-97.114;2023-03-09T14:09:13;13.90;99.90
19622;DHT22;9958;33.196;-97.114;2023-03-09T14:11:44;14.00;99.90
19622;DHT22;9958;33.196;-97.114;2023-03-09T14:14:18;14.00;99.90
19622;DHT22;9958;33.196;-97.114;2023-03-09T14:16:51;14.00;99.90
19622;DHT22;9958;33.196;-97.114;2023-03-09T14:19:27;14.00;99.90
19622;DHT22;9958;33.196;-97.114;2023-03-09T14:21:57;14.00;99.90
19622;DHT22;9958;33.196;-97.114;2023-03-09T14:24:30;14.00;99.90
19622;DHT22;9958;33.196;-97.114;2023-03-09T14:27:12;14.00;99.90
19622;DHT22;9958;33.196;-97.114;2023-03-09T14:29:40;14.00;99.90
19622;DHT22;9958;33.196;-97.114;2023-03-09T14:32:25;14.10;99.90
19622;DHT22;9958;33.196;-97.114;2023-03-09T14:34:55;14.10;99.90
19622;DHT22;9958;33.196;-97.114;2023-03-09T14:37:26;14.10;99.90
19622;DHT22;9958;33.196;-97.114;2023-03-09T14:39:55;14.10;99.90
19622;DHT22;9958;33.196;-97.114;2023-03-09T14:42:27;14.20;99.90
19622;DHT22;9958;33.196;-97.114;2023-03-09T14:47:45;14.20;99.90
19622;DHT22;9958;33.196;-97.114;2023-03-09T14:50:18;14.20;99.90
19622;DHT22;9958;33.196;-97.114;2023-03-09T14:52:47;14.30;99.90
19622;DHT22;9958;33.196;-97.114;2023-03-09T14:55:17;14.30;99.90
19622;DHT22;9958;33.196;-97.114;2023-03-09T14:57:47;14.30;99.90
19622;DHT22;9958;33.196;-97.114;2023-03-09T15:00:18;14.40;99.90
19622;DHT22;9958;33.196;-97.114;2023-03-09T15:02:49;14.40;99.90
19622;DHT22;9958;33.196;-97.114;2023-03-09T15:05:20;14.50;99.90
19622;DHT22;9958;33.196;-97.114;2023-03-09T15:07:48;14.50;99.90
19622;DHT22;9958;33.196;-97.114;2023-03-09T15:10:18;14.60;99.90
19622;DHT22;9958;33.196;-97.114;2023-03-09T15:12:50;14.70;99.90
19622;DHT22;9958;33.196;-97.114;2023-03-09T15:15:20;14.70;99.90
19622;DHT22;9958;33.196;-97.114;2023-03-09T15:17:51;14.70;99.90
19622;DHT22;9958;33.196;-97.114;2023-03-09T15:20:22;14.80;99.90
19622;DHT22;9958;33.196;-97.114;2023-03-09T15:22:51;14.80;99.90
19622;DHT22;9958;33.196;-97.114;2023-03-09T15:25:21;14.80;99.90
19622;DHT22;9958;33.196;-97.114;2023-03-09T15:27:49;14.90;99.90
19622;DHT22;9958;33.196;-97.114;2023-03-09T15:30:18;14.90;99.90
19622;DHT22;9958;33.196;-97.114;2023-03-09T15:32:46;14.90;99.90
19622;DHT22;9958;33.196;-97.114;2023-03-09T15:35:18;15.00;99.90
19622;DHT22;9958;33.196;-97.114;2023-03-09T15:37:47;15.00;99.90
19622;DHT22;9958;33.196;-97.114;2023-03-09T15:40:17;15.00;99.90
19622;DHT22;9958;33.196;-97.114;2023-03-09T15:42:45;15.10;99.90
19622;DHT22;9958;33.196;-97.114;2023-03-09T15:45:15;15.20;99.90